createdAt,value
2019-01-26T00:02:49.469Z,97.13
2019-01-26T00:07:53.485Z,98.40
2019-01-26T00:12:59.488Z,100.00
2019-01-26T00:18:06.922Z,100.00
2019-01-26T00:23:14.432Z,100.00
2019-01-26T00:28:18.329Z,100.00
2019-01-26T00:33:23.717Z,100.00
2019-01-26T00:38:30.855Z,100.00
2019-01-26T00:43:36.530Z,100.00
2019-01-26T00:48:40.975Z,100.00
2019-01-26T00:53:45.724Z,100.00
2019-01-26T00:58:49.761Z,100.00
2019-01-26T01:03:54.216Z,100.00
2019-01-26T01:08:58.888Z,100.00
2019-01-26T01:14:02.900Z,100.00
2019-01-26T01:19:07.132Z,100.00
2019-01-26T01:24:16.132Z,100.00
2019-01-26T01:29:22.717Z,100.00
2019-01-26T01:34:27.403Z,99.07
2019-01-26T01:39:32.088Z,99.00
2019-01-26T01:44:38.918Z,97.60
2019-01-26T01:49:43.055Z,96.43
2019-01-26T01:54:47.253Z,96.13
2019-01-26T01:59:51.694Z,95.16
2019-01-26T02:04:56.344Z,95.62
2019-01-26T02:10:02.382Z,96.45
2019-01-26T02:15:08.804Z,95.73
2019-01-26T02:20:16.251Z,95.52
2019-01-26T02:25:20.942Z,96.41
2019-01-26T02:30:26.629Z,96.21
2019-01-26T02:35:32.878Z,96.63
2019-01-26T02:40:37.050Z,97.03
2019-01-26T02:45:41.288Z,97.57
2019-01-26T02:50:46.225Z,97.33
2019-01-26T02:55:52.783Z,97.48
2019-01-26T03:00:59.543Z,98.50
2019-01-26T03:06:08.857Z,98.13
2019-01-26T03:11:15.974Z,98.46
2019-01-26T03:16:22.315Z,98.49
2019-01-26T03:21:26.583Z,99.70
2019-01-26T03:26:30.655Z,99.61
2019-01-26T03:31:36.439Z,100.00
2019-01-26T03:36:41.140Z,99.86
2019-01-26T03:41:47.461Z,99.98
2019-01-26T03:46:52.323Z,100.00
2019-01-26T03:51:56.377Z,100.00
2019-01-26T03:57:00.877Z,100.00
2019-01-26T04:02:04.867Z,100.00
2019-01-26T04:07:11.630Z,100.00
2019-01-26T04:12:19.068Z,100.00
2019-01-26T04:17:25.770Z,100.00
2019-01-26T04:22:29.892Z,100.00
2019-01-26T04:27:34.296Z,99.76
2019-01-26T04:32:39.008Z,99.70
2019-01-26T04:37:43.959Z,100.00
2019-01-26T04:42:50.448Z,99.26
2019-01-26T04:47:55.685Z,99.47
2019-01-26T04:53:00.303Z,99.25
2019-01-26T04:58:04.904Z,100.00
2019-01-26T05:03:20.437Z,100.00
2019-01-26T05:08:27.282Z,100.00
2019-01-26T05:13:32.078Z,100.00
2019-01-26T05:18:39.121Z,100.00
2019-01-26T05:23:43.159Z,100.00
2019-01-26T05:28:48.258Z,100.00
2019-01-26T05:33:54.894Z,100.00
2019-01-26T05:39:01.597Z,100.00
2019-01-26T05:44:07.889Z,100.00
2019-01-26T05:49:12.872Z,100.00
2019-01-26T05:54:18.584Z,100.00
2019-01-26T05:59:24.311Z,100.00
2019-01-26T06:04:29.869Z,100.00
2019-01-26T06:09:40.018Z,100.00
2019-01-26T06:14:48.167Z,100.00
2019-01-26T06:19:56.771Z,100.00
2019-01-26T06:25:05.482Z,100.00
2019-01-26T06:30:14.829Z,100.00
2019-01-26T06:35:19.597Z,100.00
2019-01-26T06:40:24.690Z,100.00
2019-01-26T06:45:31.823Z,100.00
2019-01-26T06:50:38.442Z,100.00
2019-01-26T06:55:43.116Z,100.00
2019-01-26T07:00:48.317Z,100.00
2019-01-26T07:06:03.369Z,100.00
2019-01-26T07:11:10.980Z,100.00
2019-01-26T07:16:22.424Z,100.00
2019-01-26T07:21:29.562Z,100.00
2019-01-26T07:26:35.023Z,100.00
2019-01-26T07:31:51.363Z,100.00
2019-01-26T07:36:57.489Z,100.00
2019-01-26T07:42:05.009Z,100.00
2019-01-26T07:47:10.606Z,99.58
2019-01-26T07:52:15.622Z,99.27
2019-01-26T07:57:19.644Z,98.06
2019-01-26T08:02:25.081Z,94.91
2019-01-26T08:07:30.187Z,93.04
2019-01-26T08:12:36.753Z,91.91
2019-01-26T08:17:43.208Z,90.78
2019-01-26T08:22:52.429Z,88.46
2019-01-26T08:27:57.485Z,88.12
2019-01-26T08:33:02.301Z,86.08
2019-01-26T08:38:08.474Z,87.29
2019-01-26T08:43:14.542Z,87.06
2019-01-26T08:48:21.120Z,84.92
2019-01-26T08:53:26.612Z,85.11
2019-01-26T08:58:33.509Z,85.16
2019-01-26T09:03:57.423Z,85.55
2019-01-26T09:09:08.138Z,83.14
2019-01-26T09:14:17.811Z,81.57
2019-01-26T09:19:22.357Z,81.17
2019-01-26T09:24:26.673Z,83.25
2019-01-26T09:29:33.234Z,82.98
2019-01-26T09:34:38.589Z,82.04
2019-01-26T09:39:42.687Z,81.56
2019-01-26T09:44:47.248Z,81.08
2019-01-26T09:49:51.426Z,81.95
2019-01-26T09:54:57.006Z,81.77
2019-01-26T10:00:02.290Z,80.98
2019-01-26T10:05:08.161Z,81.88
2019-01-26T10:10:12.623Z,81.12
2019-01-26T10:15:18.539Z,81.78
2019-01-26T10:20:26.690Z,81.18
2019-01-26T10:25:33.781Z,81.12
2019-01-26T10:30:47.330Z,81.12
2019-01-26T10:36:16.887Z,81.21
2019-01-26T10:41:36.564Z,81.25
2019-01-26T10:46:41.543Z,81.22
2019-01-26T10:52:04.664Z,80.85
2019-01-26T10:57:09.675Z,80.18
2019-01-26T11:02:14.839Z,80.37
2019-01-26T11:07:19.340Z,79.71
2019-01-26T11:12:25.437Z,79.88
2019-01-26T11:17:32.214Z,79.31
2019-01-26T11:22:36.450Z,78.87
2019-01-26T11:27:40.649Z,78.68
2019-01-26T11:32:46.602Z,79.36
2019-01-26T11:37:51.278Z,78.43
2019-01-26T11:42:55.941Z,79.06
2019-01-26T11:48:02.463Z,78.71
2019-01-26T11:53:06.643Z,79.35
2019-01-26T11:58:10.752Z,79.23
2019-01-26T12:03:24.124Z,79.04
2019-01-26T12:08:28.459Z,78.67
2019-01-26T12:13:34.169Z,77.88
2019-01-26T12:18:39.124Z,76.70
2019-01-26T12:23:45.951Z,75.87
2019-01-26T12:28:50.353Z,75.69
2019-01-26T12:33:57.290Z,75.38
2019-01-26T12:39:02.502Z,75.11
2019-01-26T12:44:09.841Z,75.75
2019-01-26T12:49:16.186Z,74.73
2019-01-26T12:54:21.654Z,75.04
2019-01-26T12:59:29.828Z,75.79
2019-01-26T13:04:38.068Z,75.90
2019-01-26T13:09:42.222Z,75.91
2019-01-26T13:14:47.983Z,76.03
2019-01-26T13:19:53.183Z,75.70
2019-01-26T13:24:57.617Z,75.97
2019-01-26T13:30:02.563Z,75.86
2019-01-26T13:35:07.883Z,75.64
2019-01-26T13:40:16.082Z,76.23
2019-01-26T13:45:21.365Z,75.82
2019-01-26T13:50:27.588Z,76.78
2019-01-26T13:55:32.300Z,76.47
2019-01-26T14:00:36.938Z,76.75
2019-01-26T14:05:45.479Z,77.19
2019-01-26T14:10:50.034Z,77.05
2019-01-26T14:15:54.608Z,77.44
2019-01-26T14:20:59.202Z,77.29
2019-01-26T14:26:06.796Z,77.58
2019-01-26T14:31:13.219Z,77.45
2019-01-26T14:36:18.381Z,78.01
2019-01-26T14:41:37.565Z,77.61
2019-01-26T14:46:42.186Z,77.56
2019-01-26T14:51:47.323Z,77.69
2019-01-26T14:56:51.825Z,77.21
2019-01-26T15:01:55.913Z,77.33
2019-01-26T15:07:02.491Z,77.44
2019-01-26T15:12:07.082Z,77.03
2019-01-26T15:17:11.236Z,78.01
2019-01-26T15:22:15.747Z,77.76
2019-01-26T15:27:19.654Z,78.29
2019-01-26T15:32:23.836Z,78.71
2019-01-26T15:37:27.873Z,79.05
2019-01-26T15:42:34.369Z,79.03
2019-01-26T15:47:39.598Z,79.28
2019-01-26T15:52:47.391Z,79.84
2019-01-26T15:57:53.180Z,79.94
2019-01-26T16:02:57.897Z,79.22
2019-01-26T16:08:15.764Z,79.38
2019-01-26T16:13:20.947Z,79.79
2019-01-26T16:18:26.129Z,79.63
2019-01-26T16:23:34.221Z,79.04
2019-01-26T16:28:41.404Z,79.09
2019-01-26T16:34:07.300Z,79.35
2019-01-26T16:39:14.758Z,79.41
2019-01-26T16:44:19.623Z,79.47
2019-01-26T16:49:23.870Z,79.24
2019-01-26T16:54:29.471Z,79.51
2019-01-26T16:59:33.849Z,78.99
2019-01-26T17:04:37.945Z,79.62
2019-01-26T17:09:43.522Z,79.55
2019-01-26T17:14:47.545Z,79.80
2019-01-26T17:19:53.341Z,79.77
2019-01-26T17:24:58.182Z,79.82
2019-01-26T17:30:02.854Z,79.54
2019-01-26T17:35:10.862Z,79.71
2019-01-26T17:40:17.988Z,79.54
2019-01-26T17:45:22.513Z,79.83
2019-01-26T17:50:28.282Z,79.37
2019-01-26T17:55:34.089Z,79.03
2019-01-26T18:00:52.850Z,78.65
2019-01-26T18:05:59.395Z,78.84
2019-01-26T18:11:07.023Z,78.50
2019-01-26T18:16:13.496Z,78.42
2019-01-26T18:21:36.300Z,77.82
2019-01-26T18:26:44.375Z,77.06
2019-01-26T18:31:52.219Z,76.74
2019-01-26T18:36:56.749Z,76.02
2019-01-26T18:42:02.618Z,75.86
2019-01-26T18:47:09.452Z,75.47
2019-01-26T18:52:14.458Z,75.36
2019-01-26T18:57:20.452Z,75.27
2019-01-26T19:02:29.650Z,75.40
2019-01-26T19:07:34.910Z,75.10
2019-01-26T19:12:45.863Z,74.94
2019-01-26T19:17:52.364Z,74.77
2019-01-26T19:22:56.779Z,74.78
2019-01-26T19:28:01.856Z,74.52
2019-01-26T19:33:09.832Z,74.15
2019-01-26T19:38:18.626Z,74.33
2019-01-26T19:43:26.142Z,74.42
2019-01-26T19:48:31.053Z,74.63
2019-01-26T19:53:36.172Z,74.55
2019-01-26T19:58:41.539Z,74.50
2019-01-26T20:03:45.653Z,74.33
2019-01-26T20:08:50.810Z,74.14
2019-01-26T20:13:57.667Z,74.10
2019-01-26T20:19:03.819Z,74.35
2019-01-26T20:24:12.162Z,74.33
2019-01-26T20:29:17.464Z,74.08
2019-01-26T20:34:23.921Z,74.07
2019-01-26T20:39:31.442Z,73.86
2019-01-26T20:44:38.599Z,73.83
2019-01-26T20:49:45.456Z,73.80
2019-01-26T20:54:52.103Z,73.52
2019-01-26T20:59:57.306Z,73.72
2019-01-26T21:05:02.294Z,73.20
2019-01-26T21:10:12.623Z,73.65
2019-01-26T21:15:18.927Z,73.37
2019-01-26T21:20:24.883Z,72.99
2019-01-26T21:25:32.283Z,73.76
2019-01-26T21:30:42.112Z,74.11
2019-01-26T21:35:51.814Z,73.47
2019-01-26T21:40:57.138Z,73.83
2019-01-26T21:46:01.200Z,73.43
2019-01-26T21:51:07.880Z,72.78
2019-01-26T21:56:14.259Z,73.50
2019-01-26T22:01:19.099Z,73.34
2019-01-26T22:06:25.801Z,73.87
2019-01-26T22:11:33.613Z,73.50
2019-01-26T22:16:41.178Z,73.29
2019-01-26T22:21:46.217Z,73.62
2019-01-26T22:26:50.582Z,73.74
2019-01-26T22:32:06.066Z,73.90
2019-01-26T22:37:21.463Z,73.90
2019-01-26T22:42:29.010Z,73.47
2019-01-26T22:47:35.999Z,73.77
2019-01-26T22:52:41.142Z,73.54
2019-01-26T22:57:47.572Z,73.68
2019-01-26T23:02:52.723Z,74.04
2019-01-26T23:08:03.446Z,74.56
2019-01-26T23:13:58.274Z,75.42
2019-01-26T23:19:26.929Z,75.78
2019-01-26T23:25:06.770Z,75.42
2019-01-26T23:30:48.489Z,75.50
2019-01-26T23:35:54.926Z,75.25
2019-01-26T23:40:59.381Z,74.90
2019-01-26T23:46:05.432Z,74.87
2019-01-26T23:51:11.156Z,73.84
2019-01-26T23:56:16.819Z,73.56
